sensor_id;sensor_type;location;lat;lon;timestamp;temperature;humidity
6375;DHT22;35400;45.472;-122.822;2022-10-30T00:00:49;14.20;99.90
6375;DHT22;35400;45.472;-122.822;2022-10-30T00:03:16;14.20;99.90
6375;DHT22;35400;45.472;-122.822;2022-10-30T00:05:48;14.20;99.90
6375;DHT22;35400;45.472;-122.822;2022-10-30T00:08:18;14.20;99.90
6375;DHT22;35400;45.472;-122.822;2022-10-30T00:10:45;14.20;99.90
6375;DHT22;35400;45.472;-122.822;2022-10-30T00:13:13;14.20;99.90
6375;DHT22;35400;45.472;-122.822;2022-10-30T00:15:49;14.20;99.90
6375;DHT22;35400;45.472;-122.822;2022-10-30T00:18:17;14.20;99.90
6375;DHT22;35400;45.472;-122.822;2022-10-30T00:20:44;14.20;99.90
6375;DHT22;35400;45.472;-122.822;2022-10-30T00:23:11;14.10;99.90
6375;DHT22;35400;45.472;-122.822;2022-10-30T00:25:39;14.10;99.90
6375;DHT22;35400;45.472;-122.822;2022-10-30T00:28:07;14.10;99.90
6375;DHT22;35400;45.472;-122.822;2022-10-30T00:30:34;14.10;99.90
6375;DHT22;35400;45.472;-122.822;2022-10-30T00:33:01;14.00;99.90
6375;DHT22;35400;45.472;-122.822;2022-10-30T00:35:28;14.00;99.90
6375;DHT22;35400;45.472;-122.822;2022-10-30T00:37:55;14.00;99.90
6375;DHT22;35400;45.472;-122.822;2022-10-30T00:40:22;14.00;99.90
6375;DHT22;35400;45.472;-122.822;2022-10-30T00:42:49;13.90;99.90
6375;DHT22;35400;45.472;-122.822;2022-10-30T00:45:17;13.90;99.90
6375;DHT22;35400;45.472;-122.822;2022-10-30T00:47:56;13.90;99.90
6375;DHT22;35400;45.472;-122.822;2022-10-30T00:50:31;13.90;99.90
6375;DHT22;35400;45.472;-122.822;2022-10-30T00:53:00;13.80;99.90
6375;DHT22;35400;45.472;-122.822;2022-10-30T00:55:32;13.80;99.90
6375;DHT22;35400;45.472;-122.822;2022-10-30T00:58:01;13.80;99.90
6375;DHT22;35400;45.472;-122.822;2022-10-30T01:00:30;13.80;99.90
6375;DHT22;35400;45.472;-122.822;2022-10-30T01:02:57;13.70;99.90
6375;DHT22;35400;45.472;-122.822;2022-10-30T01:05:26;13.70;99.90
6375;DHT22;35400;45.472;-122.822;2022-10-30T01:07:55;13.70;99.90
6375;DHT22;35400;45.472;-122.822;2022-10-30T01:10:22;13.70;99.90
6375;DHT22;35400;45.472;-122.822;2022-10-30T01:12:50;13.60;99.90
6375;DHT22;35400;45.472;-122.822;2022-10-30T01:15:24;13.60;99.90
6375;DHT22;35400;45.472;-122.822;2022-10-30T01:24:04;13.50;99.90
6375;DHT22;35400;45.472;-122.822;2022-10-30T01:27:05;13.50;99.90
6375;DHT22;35400;45.472;-122.822;2022-10-30T01:37:31;13.40;99.90
6375;DHT22;35400;45.472;-122.822;2022-10-30T01:40:04;13.40;99.90
6375;DHT22;35400;45.472;-122.822;2022-10-30T01:42:53;13.40;99.90
6375;DHT22;35400;45.472;-122.822;2022-10-30T01:59:58;13.30;99.90
6375;DHT22;35400;45.472;-122.822;2022-10-30T02:02:25;13.30;99.90
6375;DHT22;35400;45.472;-122.822;2022-10-30T02:04:54;13.30;99.90
6375;DHT22;35400;45.472;-122.822;2022-10-30T02:07:21;13.20;99.90
6375;DHT22;35400;45.472;-122.822;2022-10-30T02:09:51;13.20;99.90
6375;DHT22;35400;45.472;-122.822;2022-10-30T02:12:19;13.20;99.90
6375;DHT22;35400;45.472;-122.822;2022-10-30T02:14:51;13.20;99.90
6375;DHT22;35400;45.472;-122.822;2022-10-30T02:17:19;13.20;99.90
6375;DHT22;35400;45.472;-122.822;2022-10-30T02:19:49;13.20;99.90
6375;DHT22;35400;45.472;-122.822;2022-10-30T02:22:15;13.10;99.90
6375;DHT22;35400;45.472;-122.822;2022-10-30T02:24:44;13.10;99.90
6375;DHT22;35400;45.472;-122.822;2022-10-30T02:27:11;13.10;99.90
6375;DHT22;35400;45.472;-122.822;2022-10-30T02:29:39;13.10;99.90
6375;DHT22;35400;45.472;-122.822;2022-10-30T02:32:06;13.00;99.90
6375;DHT22;35400;45.472;-122.822;2022-10-30T02:34:34;13.00;99.90
6375;DHT22;35400;45.472;-122.822;2022-10-30T02:37:02;13.00;99.90
6375;DHT22;35400;45.472;-122.822;2022-10-30T02:39:29;13.00;99.90
6375;DHT22;35400;45.472;-122.822;2022-10-30T02:41:56;13.00;99.90
6375;DHT22;35400;45.472;-122.822;2022-10-30T02:44:23;13.00;99.90
6375;DHT22;35400;45.472;-122.822;2022-10-30T02:46:50;13.00;99.90
6375;DHT22;35400;45.472;-122.822;2022-10-30T02:49:16;13.00;99.90
6375;DHT22;35400;45.472;-122.822;2022-10-30T02:51:44;13.00;99.90
6375;DHT22;35400;45.472;-122.822;2022-10-30T02:54:12;13.00;99.90
6375;DHT22;35400;45.472;-122.822;2022-10-30T02:56:42;13.00;99.90
6375;DHT22;35400;45.472;-122.822;2022-10-30T02:59:08;13.00;99.90
6375;DHT22;35400;45.472;-122.822;2022-10-30T03:01:36;12.90;99.90
6375;DHT22;35400;45.472;-122.822;2022-10-30T03:04:03;12.90;99.90
6375;DHT22;35400;45.472;-122.822;2022-10-30T03:06:30;12.90;99.90
6375;DHT22;35400;45.472;-122.822;2022-10-30T03:08:57;12.90;99.90
6375;DHT22;35400;45.472;-122.822;2022-10-30T03:11:24;12.90;99.90
6375;DHT22;35400;45.472;-122.822;2022-10-30T03:13:53;12.90;99.90
6375;DHT22;35400;45.472;-122.822;2022-10-30T03:16:22;12.90;99.90
6375;DHT22;35400;45.472;-122.822;2022-10-30T03:18:51;12.90;99.90
6375;DHT22;35400;45.472;-122.822;2022-10-30T03:21:20;12.90;99.90
6375;DHT22;35400;45.472;-122.822;2022-10-30T03:23:48;12.90;99.90
6375;DHT22;35400;45.472;-122.822;2022-10-30T03:26:18;12.90;99.90
6375;DHT22;35400;45.472;-122.822;2022-10-30T03:28:51;12.90;99.90
6375;DHT22;35400;45.472;-122.822;2022-10-30T03:31:19;12.80;99.90
6375;DHT22;35400;45.472;-122.822;2022-10-30T03:33:49;12.80;99.90
6375;DHT22;35400;45.472;-122.822;2022-10-30T03:36:17;12.80;99.90
6375;DHT22;35400;45.472;-122.822;2022-10-30T03:38:44;12.80;99.90
6375;DHT22;35400;45.472;-122.822;2022-10-30T03:41:14;12.80;99.90
6375;DHT22;35400;45.472;-122.822;2022-10-30T03:43:43;12.80;99.90
6375;DHT22;35400;45.472;-122.822;2022-10-30T03:46:09;12.80;99.90
6375;DHT22;35400;45.472;-122.822;2022-10-30T03:48:37;12.80;99.90
6375;DHT22;35400;45.472;-122.822;2022-10-30T03:51:04;12.80;99.90
6375;DHT22;35400;45.472;-122.822;2022-10-30T03:53:31;12.80;99.90
6375;DHT22;35400;45.472;-122.822;2022-10-30T03:56:01;12.80;99.90
6375;DHT22;35400;45.472;-122.822;2022-10-30T03:58:36;12.80;99.90
6375;DHT22;35400;45.472;-122.822;2022-10-30T04:01:07;12.80;99.90
6375;DHT22;35400;45.472;-122.822;2022-10-30T04:03:37;12.80;99.90
6375;DHT22;35400;45.472;-122.822;2022-10-30T04:06:05;12.80;99.90
6375;DHT22;35400;45.472;-122.822;2022-10-30T04:08:33;12.80;99.90
6375;DHT22;35400;45.472;-122.822;2022-10-30T04:11:01;12.80;99.90
6375;DHT22;35400;45.472;-122.822;2022-10-30T04:13:27;12.80;99.90
6375;DHT22;35400;45.472;-122.822;2022-10-30T04:15:55;12.80;99.90
6375;DHT22;35400;45.472;-122.822;2022-10-30T04:18:22;12.80;99.90
6375;DHT22;35400;45.472;-122.822;2022-10-30T04:20:49;12.70;99.90
6375;DHT22;35400;45.472;-122.822;2022-10-30T04:23:18;12.80;99.90
6375;DHT22;35400;45.472;-122.822;2022-10-30T04:25:45;12.80;99.90
6375;DHT22;35400;45.472;-122.822;2022-10-30T04:28:12;12.70;99.90
6375;DHT22;35400;45.472;-122.822;2022-10-30T04:30:41;12.80;99.90
6375;DHT22;35400;45.472;-122.822;2022-10-30T04:33:12;12.80;99.90
6375;DHT22;35400;45.472;-122.822;2022-10-30T04:35:40;12.70;99.90
6375;DHT22;35400;45.472;-122.822;2022-10-30T04:38:14;12.80;99.90
6375;DHT22;35400;45.472;-122.822;2022-10-30T04:40:43;12.70;99.90
6375;DHT22;35400;45.472;-122.822;2022-10-30T04:43:12;12.70;99.90
6375;DHT22;35400;45.472;-122.822;2022-10-30T04:45:40;12.70;99.90
6375;DHT22;35400;45.472;-122.822;2022-10-30T04:48:11;12.70;99.90
6375;DHT22;35400;45.472;-122.822;2022-10-30T04:50:38;12.70;99.90
6375;DHT22;35400;45.472;-122.822;2022-10-30T04:53:10;12.70;99.90
6375;DHT22;35400;45.472;-122.822;2022-10-30T04:55:37;12.70;99.90
6375;DHT22;35400;45.472;-122.822;2022-10-30T04:58:04;12.70;99.90
6375;DHT22;35400;45.472;-122.822;2022-10-30T05:00:36;12.70;99.90
6375;DHT22;35400;45.472;-122.822;2022-10-30T05:03:21;12.70;99.90
6375;DHT22;35400;45.472;-122.822;2022-10-30T05:05:56;12.70;99.90
6375;DHT22;35400;45.472;-122.822;2022-10-30T05:08:23;12.70;99.90
6375;DHT22;35400;45.472;-122.822;2022-10-30T05:10:50;12.70;99.90
6375;DHT22;35400;45.472;-122.822;2022-10-30T05:13:17;12.70;99.90
6375;DHT22;35400;45.472;-122.822;2022-10-30T05:15:43;12.70;99.90
6375;DHT22;35400;45.472;-122.822;2022-10-30T05:18:10;12.70;99.90
6375;DHT22;35400;45.472;-122.822;2022-10-30T05:20:37;12.70;99.90
6375;DHT22;35400;45.472;-122.822;2022-10-30T05:23:04;12.70;99.90
6375;DHT22;35400;45.472;-122.822;2022-10-30T05:25:31;12.70;99.90
6375;DHT22;35400;45.472;-122.822;2022-10-30T05:28:02;12.70;99.90
6375;DHT22;35400;45.472;-122.822;2022-10-30T05:30:33;12.70;99.90
6375;DHT22;35400;45.472;-122.822;2022-10-30T05:33:06;12.70;99.90
6375;DHT22;35400;45.472;-122.822;2022-10-30T05:35:35;12.70;99.90
6375;DHT22;35400;45.472;-122.822;2022-10-30T05:38:06;12.70;99.90
6375;DHT22;35400;45.472;-122.822;2022-10-30T05:40:33;12.70;99.90
6375;DHT22;35400;45.472;-122.822;2022-10-30T05:43:00;12.70;99.90
6375;DHT22;35400;45.472;-122.822;2022-10-30T05:45:28;12.70;99.90
6375;DHT22;35400;45.472;-122.822;2022-10-30T05:47:59;12.70;99.90
6375;DHT22;35400;45.472;-122.822;2022-10-30T05:50:30;12.70;99.90
6375;DHT22;35400;45.472;-122.822;2022-10-30T05:53:15;12.70;99.90
6375;DHT22;35400;45.472;-122.822;2022-10-30T05:55:43;12.70;99.90
6375;DHT22;35400;45.472;-122.822;2022-10-30T05:58:13;12.70;99.90
6375;DHT22;35400;45.472;-122.822;2022-10-30T06:00:42;12.70;99.90
6375;DHT22;35400;45.472;-122.822;2022-10-30T06:03:13;12.70;99.90
6375;DHT22;35400;45.472;-122.822;2022-10-30T06:05:44;12.70;99.90
6375;DHT22;35400;45.472;-122.822;2022-10-30T06:08:12;12.70;99.90
6375;DHT22;35400;45.472;-122.822;2022-10-30T06:10:42;12.70;99.90
6375;DHT22;35400;45.472;-122.822;2022-10-30T06:13:14;12.70;99.90
6375;DHT22;35400;45.472;-122.822;2022-10-30T06:15:46;12.70;99.90
6375;DHT22;35400;45.472;-122.822;2022-10-30T06:18:14;12.70;99.90
6375;DHT22;35400;45.472;-122.822;2022-10-30T06:20:44;12.70;99.90
6375;DHT22;35400;45.472;-122.822;2022-10-30T06:23:25;12.70;99.90
6375;DHT22;35400;45.472;-122.822;2022-10-30T06:26:04;12.70;99.90
6375;DHT22;35400;45.472;-122.822;2022-10-30T06:28:49;12.70;99.90
6375;DHT22;35400;45.472;-122.822;2022-10-30T06:31:16;12.70;99.90
6375;DHT22;35400;45.472;-122.822;2022-10-30T06:33:42;12.70;99.90
6375;DHT22;35400;45.472;-122.822;2022-10-30T06:36:11;12.70;99.90
6375;DHT22;35400;45.472;-122.822;2022-10-30T06:38:38;12.80;99.90
6375;DHT22;35400;45.472;-122.822;2022-10-30T06:41:05;12.70;99.90
6375;DHT22;35400;45.472;-122.822;2022-10-30T06:43:42;12.70;99.90
6375;DHT22;35400;45.472;-122.822;2022-10-30T06:46:15;12.80;99.90
6375;DHT22;35400;45.472;-122.822;2022-10-30T06:48:43;12.70;99.90
6375;DHT22;35400;45.472;-122.822;2022-10-30T06:51:13;12.80;99.90
6375;DHT22;35400;45.472;-122.822;2022-10-30T06:53:40;12.70;99.90
6375;DHT22;35400;45.472;-122.822;2022-10-30T06:56:27;12.80;99.90
6375;DHT22;35400;45.472;-122.822;2022-10-30T06:59:06;12.70;99.90
6375;DHT22;35400;45.472;-122.822;2022-10-30T07:01:43;12.70;99.90
6375;DHT22;35400;45.472;-122.822;2022-10-30T07:04:23;12.80;99.90
6375;DHT22;35400;45.472;-122.822;2022-10-30T07:06:49;12.70;99.90
6375;DHT22;35400;45.472;-122.822;2022-10-30T07:09:19;12.70;99.90
6375;DHT22;35400;45.472;-122.822;2022-10-30T07:11:45;12.80;99.90
6375;DHT22;35400;45.472;-122.822;2022-10-30T07:14:34;12.80;99.90
6375;DHT22;35400;45.472;-122.822;2022-10-30T07:17:15;12.70;99.90
6375;DHT22;35400;45.472;-122.822;2022-10-30T07:19:48;12.80;99.90
6375;DHT22;35400;45.472;-122.822;2022-10-30T07:22:15;12.80;99.90
6375;DHT22;35400;45.472;-122.822;2022-10-30T07:24:47;12.80;99.90
6375;DHT22;35400;45.472;-122.822;2022-10-30T07:27:22;12.80;99.90
6375;DHT22;35400;45.472;-122.822;2022-10-30T07:30:25;12.80;99.90
6375;DHT22;35400;45.472;-122.822;2022-10-30T07:33:25;12.80;99.90
6375;DHT22;35400;45.472;-122.822;2022-10-30T07:36:00;12.80;99.90
6375;DHT22;35400;45.472;-122.822;2022-10-30T07:38:46;12.80;99.90
6375;DHT22;35400;45.472;-122.822;2022-10-30T07:41:42;12.80;99.90
6375;DHT22;35400;45.472;-122.822;2022-10-30T07:44:32;12.80;99.90
6375;DHT22;35400;45.472;-122.822;2022-10-30T07:47:17;12.80;99.90
6375;DHT22;35400;45.472;-122.822;2022-10-30T07:50:05;12.80;99.90
6375;DHT22;35400;45.472;-122.822;2022-10-30T07:52:33;12.80;99.90
6375;DHT22;35400;45.472;-122.822;2022-10-30T07:55:00;12.80;99.90
6375;DHT22;35400;45.472;-122.822;2022-10-30T07:57:45;12.80;99.90
6375;DHT22;35400;45.472;-122.822;2022-10-30T08:00:30;12.80;99.90
6375;DHT22;35400;45.472;-122.822;2022-10-30T08:03:19;12.80;99.90
6375;DHT22;35400;45.472;-122.822;2022-10-30T08:05:50;12.80;99.90
6375;DHT22;35400;45.472;-122.822;2022-10-30T08:08:43;12.80;99.90
6375;DHT22;35400;45.472;-122.822;2022-10-30T08:11:23;12.70;99.90
6375;DHT22;35400;45.472;-122.822;2022-10-30T08:13:52;12.70;99.90
6375;DHT22;35400;45.472;-122.822;2022-10-30T08:16:19;12.70;99.90
6375;DHT22;35400;45.472;-122.822;2022-10-30T08:18:46;12.70;99.90
6375;DHT22;35400;45.472;-122.822;2022-10-30T08:21:13;12.70;99.90
6375;DHT22;35400;45.472;-122.822;2022-10-30T08:23:53;12.70;99.90
6375;DHT22;35400;45.472;-122.822;2022-10-30T08:26:20;12.70;99.90
6375;DHT22;35400;45.472;-122.822;2022-10-30T08:28:47;12.70;99.90
6375;DHT22;35400;45.472;-122.822;2022-10-30T08:31:15;12.70;99.90
6375;DHT22;35400;45.472;-122.822;2022-10-30T08:34:02;12.70;99.90
6375;DHT22;35400;45.472;-122.822;2022-10-30T08:36:58;12.70;99.90
6375;DHT22;35400;45.472;-122.822;2022-10-30T08:39:26;12.70;99.90
6375;DHT22;35400;45.472;-122.822;2022-10-30T08:42:05;12.70;99.90
6375;DHT22;35400;45.472;-122.822;2022-10-30T08:44:40;12.70;99.90
6375;DHT22;35400;45.472;-122.822;2022-10-30T08:47:25;12.70;99.90
6375;DHT22;35400;45.472;-122.822;2022-10-30T08:49:52;12.70;99.90
6375;DHT22;35400;45.472;-122.822;2022-10-30T08:52:22;12.70;99.90
6375;DHT22;35400;45.472;-122.822;2022-10-30T08:54:54;12.70;99.90
6375;DHT22;35400;45.472;-122.822;2022-10-30T08:57:23;12.70;99.90
6375;DHT22;35400;45.472;-122.822;2022-10-30T08:59:51;12.70;99.90
6375;DHT22;35400;45.472;-122.822;2022-10-30T09:02:37;12.70;99.90
6375;DHT22;35400;45.472;-122.822;2022-10-30T09:05:22;12.70;99.90
6375;DHT22;35400;45.472;-122.822;2022-10-30T09:08:08;12.70;99.90
6375;DHT22;35400;45.472;-122.822;2022-10-30T09:11:04;12.70;99.90
6375;DHT22;35400;45.472;-122.822;2022-10-30T09:13:31;12.60;99.90
6375;DHT22;35400;45.472;-122.822;2022-10-30T09:16:00;12.70;99.90
6375;DHT22;35400;45.472;-122.822;2022-10-30T09:18:29;12.70;99.90
6375;DHT22;35400;45.472;-122.822;2022-10-30T09:20:56;12.70;99.90
6375;DHT22;35400;45.472;-122.822;2022-10-30T09:23:24;12.70;99.90
6375;DHT22;35400;45.472;-122.822;2022-10-30T09:25:59;12.70;99.90
6375;DHT22;35400;45.472;-122.822;2022-10-30T09:28:52;12.70;99.90
6375;DHT22;35400;45.472;-122.822;2022-10-30T09:31:39;12.70;99.90
6375;DHT22;35400;45.472;-122.822;2022-10-30T09:34:08;12.70;99.90
6375;DHT22;35400;45.472;-122.822;2022-10-30T09:36:41;12.70;99.90
6375;DHT22;35400;45.472;-122.822;2022-10-30T09:39:12;12.70;99.90
6375;DHT22;35400;45.472;-122.822;2022-10-30T09:56:33;12.60;99.90
6375;DHT22;35400;45.472;-122.822;2022-10-30T09:59:31;12.60;99.90
6375;DHT22;35400;45.472;-122.822;2022-10-30T10:02:19;12.60;99.90
6375;DHT22;35400;45.472;-122.822;2022-10-30T10:04:56;12.60;99.90
6375;DHT22;35400;45.472;-122.822;2022-10-30T10:07:47;12.60;99.90
6375;DHT22;35400;45.472;-122.822;2022-10-30T10:10:52;12.60;99.90
6375;DHT22;35400;45.472;-122.822;2022-10-30T10:13:37;12.50;99.90
6375;DHT22;35400;45.472;-122.822;2022-10-30T10:16:18;12.50;99.90
6375;DHT22;35400;45.472;-122.822;2022-10-30T10:21:50;12.50;99.90
6375;DHT22;35400;45.472;-122.822;2022-10-30T10:24:23;12.40;99.90
6375;DHT22;35400;45.472;-122.822;2022-10-30T10:46:36;12.30;99.90
6375;DHT22;35400;45.472;-122.822;2022-10-30T10:54:34;12.20;99.90
6375;DHT22;35400;45.472;-122.822;2022-10-30T10:57:04;12.20;99.90
6375;DHT22;35400;45.472;-122.822;2022-10-30T10:59:33;12.20;99.90
6375;DHT22;35400;45.472;-122.822;2022-10-30T11:04:34;12.20;99.90
6375;DHT22;35400;45.472;-122.822;2022-10-30T11:07:22;12.20;99.90
6375;DHT22;35400;45.472;-122.822;2022-10-30T11:09:53;12.10;99.90
6375;DHT22;35400;45.472;-122.822;2022-10-30T11:12:29;12.10;99.90
6375;DHT22;35400;45.472;-122.822;2022-10-30T11:14:57;12.10;99.90
6375;DHT22;35400;45.472;-122.822;2022-10-30T11:17:51;12.10;99.90
6375;DHT22;35400;45.472;-122.822;2022-10-30T11:23:36;12.00;99.90
6375;DHT22;35400;45.472;-122.822;2022-10-30T11:33:47;11.90;99.90
6375;DHT22;35400;45.472;-122.822;2022-10-30T11:36:17;11.80;99.90
6375;DHT22;35400;45.472;-122.822;2022-10-30T11:38:44;11.80;99.90
6375;DHT22;35400;45.472;-122.822;2022-10-30T11:41:11;11.80;99.90
6375;DHT22;35400;45.472;-122.822;2022-10-30T11:43:40;11.70;99.90
6375;DHT22;35400;45.472;-122.822;2022-10-30T11:46:10;11.70;99.90
6375;DHT22;35400;45.472;-122.822;2022-10-30T11:48:39;11.70;99.90
6375;DHT22;35400;45.472;-122.822;2022-10-30T11:51:10;11.60;99.90
6375;DHT22;35400;45.472;-122.822;2022-10-30T11:53:46;11.60;99.90
6375;DHT22;35400;45.472;-122.822;2022-10-30T11:56:20;11.50;99.90
6375;DHT22;35400;45.472;-122.822;2022-10-30T11:58:52;11.50;99.90
6375;DHT22;35400;45.472;-122.822;2022-10-30T12:01:25;11.50;99.90
6375;DHT22;35400;45.472;-122.822;2022-10-30T12:03:53;11.40;99.90
6375;DHT22;35400;45.472;-122.822;2022-10-30T12:06:27;11.40;99.90
6375;DHT22;35400;45.472;-122.822;2022-10-30T12:11:44;11.30;99.90
6375;DHT22;35400;45.472;-122.822;2022-10-30T12:14:21;11.30;99.90
6375;DHT22;35400;45.472;-122.822;2022-10-30T12:16:50;11.20;99.90
6375;DHT22;35400;45.472;-122.822;2022-10-30T12:19:21;11.20;99.90
6375;DHT22;35400;45.472;-122.822;2022-10-30T12:21:50;11.20;99.90
6375;DHT22;35400;45.472;-122.822;2022-10-30T12:24:37;11.20;99.90
6375;DHT22;35400;45.472;-122.822;2022-10-30T12:27:11;11.10;99.90
6375;DHT22;35400;45.472;-122.822;2022-10-30T12:29:57;11.10;99.90
6375;DHT22;35400;45.472;-122.822;2022-10-30T12:32:42;11.10;99.90
6375;DHT22;35400;45.472;-122.822;2022-10-30T12:36:04;11.00;99.90
6375;DHT22;35400;45.472;-122.822;2022-10-30T12:38:34;11.00;99.90
6375;DHT22;35400;45.472;-122.822;2022-10-30T12:41:56;11.00;99.90
6375;DHT22;35400;45.472;-122.822;2022-10-30T12:44:13;11.00;99.90
6375;DHT22;35400;45.472;-122.822;2022-10-30T12:57:50;10.90;99.90
6375;DHT22;35400;45.472;-122.822;2022-10-30T13:00:18;10.80;99.90
6375;DHT22;35400;45.472;-122.822;2022-10-30T13:03:16;10.80;99.90
6375;DHT22;35400;45.472;-122.822;2022-10-30T13:05:58;10.80;99.90
6375;DHT22;35400;45.472;-122.822;2022-10-30T13:13:41;10.70;99.90
6375;DHT22;35400;45.472;-122.822;2022-10-30T13:16:20;10.70;99.90
6375;DHT22;35400;45.472;-122.822;2022-10-30T13:18:51;10.70;99.90
6375;DHT22;35400;45.472;-122.822;2022-10-30T13:22:11;10.70;99.90
6375;DHT22;35400;45.472;-122.822;2022-10-30T13:27:09;10.70;99.90
6375;DHT22;35400;45.472;-122.822;2022-10-30T13:30:11;10.70;99.90
6375;DHT22;35400;45.472;-122.822;2022-10-30T13:33:08;10.70;99.90
6375;DHT22;35400;45.472;-122.822;2022-10-30T13:42:12;10.70;99.90
6375;DHT22;35400;45.472;-122.822;2022-10-30T13:48:15;10.70;99.90
6375;DHT22;35400;45.472;-122.822;2022-10-30T13:53:00;10.70;99.90
6375;DHT22;35400;45.472;-122.822;2022-10-30T13:55:35;10.70;99.90
6375;DHT22;35400;45.472;-122.822;2022-10-30T13:58:23;10.70;99.90
6375;DHT22;35400;45.472;-122.822;2022-10-30T14:03:36;10.70;99.90
6375;DHT22;35400;45.472;-122.822;2022-10-30T14:11:25;10.70;99.90
6375;DHT22;35400;45.472;-122.822;2022-10-30T14:14:03;10.70;99.90
6375;DHT22;35400;45.472;-122.822;2022-10-30T14:16:45;10.70;99.90
6375;DHT22;35400;45.472;-122.822;2022-10-30T14:19:13;10.70;99.90
6375;DHT22;35400;45.472;-122.822;2022-10-30T14:21:50;10.70;99.90
6375;DHT22;35400;45.472;-122.822;2022-10-30T14:32:01;10.80;99.90
6375;DHT22;35400;45.472;-122.822;2022-10-30T14:37:53;10.80;99.90
6375;DHT22;35400;45.472;-122.822;2022-10-30T14:40:39;10.80;99.90
6375;DHT22;35400;45.472;-122.822;2022-10-30T14:43:33;10.80;99.90
6375;DHT22;35400;45.472;-122.822;2022-10-30T14:46:11;10.80;99.90
6375;DHT22;35400;45.472;-122.822;2022-10-30T14:48:51;10.80;99.90
6375;DHT22;35400;45.472;-122.822;2022-10-30T14:51:52;10.80;99.90
6375;DHT22;35400;45.472;-122.822;2022-10-30T14:54:40;10.80;99.90
6375;DHT22;35400;45.472;-122.822;2022-10-30T14:57:22;10.80;99.90
6375;DHT22;35400;45.472;-122.822;2022-10-30T15:05:57;10.70;99.90
6375;DHT22;35400;45.472;-122.822;2022-10-30T15:13:55;10.60;99.90
6375;DHT22;35400;45.472;-122.822;2022-10-30T15:16:23;10.60;99.90
6375;DHT22;35400;45.472;-122.822;2022-10-30T15:18:59;10.60;99.90
6375;DHT22;35400;45.472;-122.822;2022-10-30T15:21:28;10.60;99.90
6375;DHT22;35400;45.472;-122.822;2022-10-30T15:23:59;10.60;99.90
6375;DHT22;35400;45.472;-122.822;2022-10-30T15:26:32;10.60;99.90
6375;DHT22;35400;45.472;-122.822;2022-10-30T15:29:01;10.60;99.90
6375;DHT22;35400;45.472;-122.822;2022-10-30T15:31:29;10.60;99.90
6375;DHT22;35400;45.472;-122.822;2022-10-30T15:33:56;10.60;99.90
6375;DHT22;35400;45.472;-122.822;2022-10-30T15:36:39;10.60;99.90
6375;DHT22;35400;45.472;-122.822;2022-10-30T15:39:13;10.60;99.90
6375;DHT22;35400;45.472;-122.822;2022-10-30T15:44:25;10.60;99.90
6375;DHT22;35400;45.472;-122.822;2022-10-30T15:46:54;10.70;99.90
6375;DHT22;35400;45.472;-122.822;2022-10-30T15:51:58;10.70;99.90
6375;DHT22;35400;45.472;-122.822;2022-10-30T15:54:27;10.80;99.90
6375;DHT22;35400;45.472;-122.822;2022-10-30T15:56:57;10.80;99.90
6375;DHT22;35400;45.472;-122.822;2022-10-30T15:59:29;10.90;99.90
6375;DHT22;35400;45.472;-122.822;2022-10-30T16:01:58;11.00;99.90
6375;DHT22;35400;45.472;-122.822;2022-10-30T16:04:30;11.00;99.90
6375;DHT22;35400;45.472;-122.822;2022-10-30T16:07:00;11.10;99.90
6375;DHT22;35400;45.472;-122.822;2022-10-30T16:09:27;11.20;99.90
6375;DHT22;35400;45.472;-122.822;2022-10-30T16:11:58;11.30;99.90
6375;DHT22;35400;45.472;-122.822;2022-10-30T16:14:27;11.30;99.90
6375;DHT22;35400;45.472;-122.822;2022-10-30T16:17:01;11.40;99.90
6375;DHT22;35400;45.472;-122.822;2022-10-30T16:19:30;11.50;99.90
6375;DHT22;35400;45.472;-122.822;2022-10-30T16:21:59;11.60;99.90
6375;DHT22;35400;45.472;-122.822;2022-10-30T16:24:33;11.70;99.90
6375;DHT22;35400;45.472;-122.822;2022-10-30T16:27:13;11.80;99.90
6375;DHT22;35400;45.472;-122.822;2022-10-30T16:29:40;11.90;99.90
6375;DHT22;35400;45.472;-122.822;2022-10-30T16:32:16;12.00;99.90
6375;DHT22;35400;45.472;-122.822;2022-10-30T16:34:45;12.00;99.90
6375;DHT22;35400;45.472;-122.822;2022-10-30T16:37:36;12.00;99.90
6375;DHT22;35400;45.472;-122.822;2022-10-30T16:40:15;12.10;99.90
6375;DHT22;35400;45.472;-122.822;2022-10-30T16:42:59;12.10;99.90
6375;DHT22;35400;45.472;-122.822;2022-10-30T16:48:08;12.20;99.90
6375;DHT22;35400;45.472;-122.822;2022-10-30T16:50:38;12.20;99.90
6375;DHT22;35400;45.472;-122.822;2022-10-30T16:53:16;12.30;99.90
6375;DHT22;35400;45.472;-122.822;2022-10-30T16:55:44;12.40;99.90
6375;DHT22;35400;45.472;-122.822;2022-10-30T16:58:13;12.40;99.90
6375;DHT22;35400;45.472;-122.822;2022-10-30T17:00:46;12.50;99.90
6375;DHT22;35400;45.472;-122.822;2022-10-30T17:03:13;12.60;99.90
6375;DHT22;35400;45.472;-122.822;2022-10-30T17:05:40;12.70;99.90
6375;DHT22;35400;45.472;-122.822;2022-10-30T17:08:38;12.80;99.90
6375;DHT22;35400;45.472;-122.822;2022-10-30T17:11:14;12.90;99.90
6375;DHT22;35400;45.472;-122.822;2022-10-30T17:16:30;13.20;99.90
6375;DHT22;35400;45.472;-122.822;2022-10-30T17:18:59;13.30;99.90
6375;DHT22;35400;45.472;-122.822;2022-10-30T17:21:36;13.40;99.90
6375;DHT22;35400;45.472;-122.822;2022-10-30T17:24:03;13.40;99.90
6375;DHT22;35400;45.472;-122.822;2022-10-30T17:26:36;13.50;99.90
6375;DHT22;35400;45.472;-122.822;2022-10-30T17:29:04;13.60;99.90
6375;DHT22;35400;45.472;-122.822;2022-10-30T17:34:10;13.60;99.90
6375;DHT22;35400;45.472;-122.822;2022-10-30T17:36:38;13.60;99.90
6375;DHT22;35400;45.472;-122.822;2022-10-30T17:39:05;13.70;99.90
6375;DHT22;35400;45.472;-122.822;2022-10-30T17:41:33;13.70;99.90
6375;DHT22;35400;45.472;-122.822;2022-10-30T17:44:00;13.70;99.90
6375;DHT22;35400;45.472;-122.822;2022-10-30T17:46:27;13.70;99.90
6375;DHT22;35400;45.472;-122.822;2022-10-30T17:48:54;13.70;99.90
6375;DHT22;35400;45.472;-122.822;2022-10-30T17:51:22;13.70;99.90
6375;DHT22;35400;45.472;-122.822;2022-10-30T17:53:48;13.60;99.90
6375;DHT22;35400;45.472;-122.822;2022-10-30T17:56:16;13.60;99.90
6375;DHT22;35400;45.472;-122.822;2022-10-30T17:58:44;13.50;99.90
6375;DHT22;35400;45.472;-122.822;2022-10-30T18:01:24;13.50;99.90
6375;DHT22;35400;45.472;-122.822;2022-10-30T18:03:53;13.40;99.90
6375;DHT22;35400;45.472;-122.822;2022-10-30T18:06:25;13.40;99.90
6375;DHT22;35400;45.472;-122.822;2022-10-30T18:08:53;13.40;99.90
6375;DHT22;35400;45.472;-122.822;2022-10-30T18:11:22;13.30;99.90
6375;DHT22;35400;45.472;-122.822;2022-10-30T18:13:50;13.30;99.90
6375;DHT22;35400;45.472;-122.822;2022-10-30T18:16:18;13.30;99.90
6375;DHT22;35400;45.472;-122.822;2022-10-30T18:18:45;13.30;99.90
6375;DHT22;35400;45.472;-122.822;2022-10-30T18:21:14;13.30;99.90